createdAt,value
2023-03-06T00:00:57.383Z,9.60
2023-03-06T00:04:02.010Z,10.93
2023-03-06T00:07:04.705Z,8.93
2023-03-06T00:10:08.169Z,10.03
2023-03-06T00:13:14.801Z,9.93
2023-03-06T00:16:17.497Z,9.67
2023-03-06T00:19:21.538Z,9.90
2023-03-06T00:22:24.370Z,14.17
2023-03-06T00:25:29.890Z,10.33
2023-03-06T00:31:52.295Z,11.23
2023-03-06T00:34:58.941Z,11.73
2023-03-06T00:38:04.615Z,12.77
2023-03-06T00:41:09.105Z,22.30
2023-03-06T00:44:11.795Z,13.30
2023-03-06T00:47:17.143Z,18.07
2023-03-06T00:50:21.376Z,14.60
2023-03-06T00:53:37.387Z,18.93
2023-03-06T00:56:46.216Z,16.47
2023-03-06T00:59:49.264Z,13.20
2023-03-06T01:02:58.121Z,14.70
2023-03-06T01:06:02.587Z,11.67
2023-03-06T01:09:08.347Z,11.37
2023-03-06T01:12:11.936Z,16.97
2023-03-06T01:15:17.626Z,20.23
2023-03-06T01:18:20.294Z,19.10
2023-03-06T01:21:27.619Z,19.57
2023-03-06T01:24:30.349Z,22.93
2023-03-06T01:27:35.824Z,16.00
2023-03-06T01:30:39.250Z,15.13
2023-03-06T01:33:41.951Z,15.47
2023-03-06T01:36:50.122Z,11.00
2023-03-06T01:39:52.778Z,12.97
2023-03-06T01:42:55.435Z,14.10
2023-03-06T01:46:35.130Z,9.90
2023-03-06T01:49:40.584Z,12.33
2023-03-06T01:52:50.472Z,10.60
2023-03-06T01:56:08.386Z,9.83
2023-03-06T01:59:11.659Z,9.27
2023-03-06T02:02:16.325Z,11.37
2023-03-06T02:05:22.269Z,10.83
2023-03-06T02:08:28.105Z,9.00
2023-03-06T02:11:30.876Z,9.77
2023-03-06T02:14:34.167Z,13.83
2023-03-06T02:17:37.691Z,11.90
2023-03-06T02:20:47.616Z,11.23
2023-03-06T02:24:05.084Z,10.43
2023-03-06T02:27:12.393Z,16.80
2023-03-06T02:30:17.662Z,9.57
2023-03-06T02:33:29.456Z,15.27
2023-03-06T02:36:38.541Z,9.63
2023-03-06T02:39:45.142Z,11.03
2023-03-06T02:42:51.019Z,8.47
2023-03-06T02:45:54.922Z,7.60
2023-03-06T02:48:58.328Z,10.50
2023-03-06T02:52:00.999Z,9.67
2023-03-06T02:55:04.140Z,8.40
2023-03-06T02:58:08.430Z,9.17
2023-03-06T03:01:11.843Z,9.53
2023-03-06T03:04:14.646Z,9.17
2023-03-06T03:07:18.311Z,8.60
2023-03-06T03:10:24.018Z,11.03
2023-03-06T03:13:45.092Z,11.80
2023-03-06T03:16:47.817Z,10.70
2023-03-06T03:19:52.741Z,7.70
2023-03-06T03:22:56.591Z,11.57
2023-03-06T03:26:07.403Z,8.80
2023-03-06T03:29:11.514Z,10.03
2023-03-06T03:32:14.355Z,8.80
2023-03-06T03:35:17.013Z,8.00
2023-03-06T03:38:19.939Z,12.83
2023-03-06T03:41:24.964Z,9.93
2023-03-06T03:44:29.731Z,8.73
2023-03-06T03:47:32.402Z,8.83
2023-03-06T03:50:35.436Z,8.80
2023-03-06T03:53:41.288Z,10.80
2023-03-06T03:56:45.504Z,10.40
2023-03-06T03:59:49.753Z,13.00
2023-03-06T04:02:52.886Z,8.47
2023-03-06T04:05:58.868Z,7.00
2023-03-06T04:09:01.999Z,8.63
2023-03-06T04:12:04.948Z,8.03
2023-03-06T04:15:13.188Z,10.37
2023-03-06T04:18:16.618Z,8.63
2023-03-06T04:21:19.356Z,11.53
2023-03-06T04:24:31.323Z,17.17
2023-03-06T04:27:34.027Z,11.13
2023-03-06T04:30:38.500Z,11.23
2023-03-06T04:33:46.053Z,10.70
2023-03-06T04:36:54.840Z,11.53
2023-03-06T04:39:58.292Z,9.00
2023-03-06T04:43:02.203Z,8.97
2023-03-06T04:46:06.720Z,11.70
2023-03-06T04:49:12.693Z,23.00
2023-03-06T04:52:17.575Z,15.70
2023-03-06T04:55:23.693Z,17.67
2023-03-06T04:58:27.837Z,15.57
2023-03-06T05:01:32.015Z,12.20
2023-03-06T05:04:36.345Z,11.70
2023-03-06T05:07:39.132Z,13.03
2023-03-06T05:10:41.870Z,15.53
2023-03-06T05:13:44.665Z,17.83
2023-03-06T05:16:48.823Z,9.33
2023-03-06T05:20:00.770Z,13.27
2023-03-06T05:23:03.984Z,9.70
2023-03-06T05:26:10.878Z,9.47
2023-03-06T05:29:15.392Z,10.13
2023-03-06T05:32:22.493Z,9.73
2023-03-06T05:35:25.665Z,9.47
2023-03-06T05:38:36.347Z,10.47
2023-03-06T05:41:46.579Z,10.37
2023-03-06T05:44:51.407Z,9.73
2023-03-06T05:47:55.751Z,13.43
2023-03-06T05:51:03.264Z,10.93
2023-03-06T05:54:08.824Z,18.53
2023-03-06T05:57:11.519Z,10.50
2023-03-06T06:00:15.833Z,17.50
2023-03-06T06:03:23.393Z,31.23
2023-03-06T06:06:26.271Z,38.53
2023-03-06T06:09:29.324Z,40.23
2023-03-06T06:12:32.102Z,32.63
2023-03-06T06:15:35.094Z,28.90
2023-03-06T06:18:41.449Z,29.27
2023-03-06T06:21:44.300Z,19.17
2023-03-06T06:24:47.028Z,21.73
2023-03-06T06:27:49.693Z,20.47
2023-03-06T06:30:52.618Z,17.83
2023-03-06T06:33:56.793Z,15.70
2023-03-06T06:36:59.605Z,17.73
2023-03-06T06:40:02.377Z,16.03
2023-03-06T06:43:05.193Z,18.70
2023-03-06T06:46:36.453Z,20.40
2023-03-06T06:49:32.137Z,16.47
2023-03-06T06:52:35.233Z,16.40
2023-03-06T06:55:38.917Z,16.17
2023-03-06T06:58:48.303Z,17.13
2023-03-06T07:01:52.147Z,21.50
2023-03-06T07:05:04.064Z,17.87
2023-03-06T07:08:15.028Z,18.03
2023-03-06T07:11:19.343Z,16.97
2023-03-06T07:14:22.069Z,17.43
2023-03-06T07:17:31.944Z,17.63
2023-03-06T07:20:36.090Z,17.90
2023-03-06T07:23:43.111Z,14.53
2023-03-06T07:26:47.827Z,17.17
2023-03-06T07:29:50.521Z,18.70
2023-03-06T07:32:55.299Z,19.67
2023-03-06T07:35:59.502Z,17.17
2023-03-06T07:39:02.528Z,19.23
2023-03-06T07:42:12.428Z,20.67
2023-03-06T07:45:15.149Z,19.67
2023-03-06T07:48:17.842Z,15.90
2023-03-06T07:51:25.406Z,17.57
2023-03-06T07:54:30.642Z,18.17
2023-03-06T07:57:35.658Z,17.00
2023-03-06T08:00:38.334Z,21.47
2023-03-06T08:03:41.063Z,18.97
2023-03-06T08:06:45.158Z,17.47
2023-03-06T08:09:50.002Z,17.53
2023-03-06T08:12:59.880Z,18.77
2023-03-06T08:16:02.808Z,19.27
2023-03-06T08:19:11.761Z,19.73
2023-03-06T08:22:15.898Z,15.83
2023-03-06T08:25:26.116Z,21.63
2023-03-06T08:28:29.455Z,18.93
2023-03-06T08:31:34.334Z,17.10
2023-03-06T08:34:39.852Z,19.80
2023-03-06T08:37:43.923Z,18.23
2023-03-06T08:40:46.610Z,20.73
2023-03-06T08:43:49.975Z,21.37
2023-03-06T08:46:52.647Z,21.50
2023-03-06T08:49:55.340Z,19.80
2023-03-06T08:52:59.640Z,18.60
2023-03-06T08:56:03.364Z,20.03
2023-03-06T08:59:09.017Z,18.93
2023-03-06T09:02:15.276Z,20.27
2023-03-06T09:05:18.204Z,20.40
2023-03-06T09:08:25.226Z,18.27
2023-03-06T09:11:28.862Z,21.23
2023-03-06T09:14:32.283Z,21.07
2023-03-06T09:17:35.061Z,23.07
2023-03-06T09:20:38.033Z,16.43
2023-03-06T09:23:42.048Z,19.53
2023-03-06T09:26:47.018Z,20.00
2023-03-06T09:29:50.573Z,18.70
2023-03-06T09:32:58.539Z,18.97
2023-03-06T09:36:01.194Z,21.97
2023-03-06T09:39:05.210Z,17.00
2023-03-06T09:42:15.146Z,18.80
2023-03-06T09:45:25.577Z,19.97
2023-03-06T09:48:49.048Z,17.73
2023-03-06T09:52:03.390Z,19.00
2023-03-06T09:55:15.806Z,17.07
2023-03-06T09:58:22.904Z,16.47
2023-03-06T10:01:29.956Z,18.37
2023-03-06T10:04:37.903Z,16.93
2023-03-06T10:07:50.537Z,16.30
2023-03-06T10:11:01.897Z,16.30
2023-03-06T10:14:19.516Z,16.27
2023-03-06T10:17:26.128Z,18.47
2023-03-06T10:20:30.144Z,18.23
2023-03-06T10:23:47.819Z,17.60
2023-03-06T10:26:57.428Z,16.67
2023-03-06T10:30:18.297Z,19.80
2023-03-06T10:33:32.464Z,17.40
2023-03-06T10:36:35.521Z,22.43
2023-03-06T10:39:38.508Z,18.00
2023-03-06T10:42:42.509Z,15.87
2023-03-06T10:45:49.760Z,14.97
2023-03-06T10:48:59.383Z,18.43
2023-03-06T10:52:05.403Z,17.27
2023-03-06T10:55:25.657Z,15.93
2023-03-06T10:58:31.291Z,20.10
2023-03-06T11:01:34.186Z,20.70
2023-03-06T11:04:38.438Z,18.07
2023-03-06T11:07:55.103Z,16.63
2023-03-06T11:11:00.565Z,19.33
2023-03-06T11:14:16.007Z,17.03
2023-03-06T11:17:29.287Z,20.23
2023-03-06T11:20:50.140Z,17.30
2023-03-06T11:23:55.601Z,16.90
2023-03-06T11:27:03.258Z,16.83
2023-03-06T11:30:21.507Z,20.47
2023-03-06T11:33:32.056Z,18.37
2023-03-06T11:36:40.807Z,15.13
2023-03-06T11:39:49.450Z,20.00
2023-03-06T11:43:00.172Z,17.80
2023-03-06T11:46:12.321Z,15.93
2023-03-06T11:49:23.349Z,17.37
2023-03-06T11:52:43.092Z,18.17
2023-03-06T11:56:05.854Z,21.60
2023-03-06T11:59:25.461Z,17.47
2023-03-06T12:02:43.853Z,17.57
2023-03-06T12:05:49.159Z,17.63
2023-03-06T12:09:04.847Z,14.97
2023-03-06T12:12:22.843Z,15.97
2023-03-06T12:15:48.506Z,16.17
2023-03-06T12:19:03.387Z,17.13
2023-03-06T12:22:28.638Z,15.73
2023-03-06T12:25:45.288Z,14.70
2023-03-06T12:29:04.073Z,16.33
2023-03-06T12:32:21.871Z,15.73
2023-03-06T12:35:51.605Z,14.50
2023-03-06T12:39:07.810Z,17.83
2023-03-06T12:42:35.664Z,14.57
2023-03-06T12:45:39.311Z,14.67
2023-03-06T12:48:46.508Z,15.63
2023-03-06T12:51:53.934Z,16.67
2023-03-06T12:54:59.660Z,16.23
2023-03-06T12:58:37.730Z,15.00
2023-03-06T13:01:55.218Z,13.10
2023-03-06T13:05:17.049Z,14.43
2023-03-06T13:08:56.838Z,13.87
2023-03-06T13:12:31.790Z,14.83
2023-03-06T13:15:45.868Z,14.17
2023-03-06T13:18:53.279Z,17.70
2023-03-06T13:22:20.671Z,15.53
2023-03-06T13:25:48.825Z,14.17
2023-03-06T13:28:54.357Z,17.50
2023-03-06T13:32:15.719Z,17.23
2023-03-06T13:35:52.786Z,16.30
2023-03-06T13:39:04.251Z,12.77
2023-03-06T13:42:26.897Z,14.73
2023-03-06T13:45:35.513Z,15.13
2023-03-06T13:48:46.283Z,15.57
2023-03-06T13:52:06.156Z,13.83
2023-03-06T13:55:23.500Z,15.73
2023-03-06T13:58:42.613Z,13.17
2023-03-06T14:01:57.619Z,15.07
2023-03-06T14:05:02.171Z,12.83
2023-03-06T14:08:11.184Z,13.90
2023-03-06T14:11:21.118Z,13.57
2023-03-06T14:14:33.096Z,13.30
2023-03-06T14:17:39.205Z,15.13
2023-03-06T14:20:44.259Z,20.57
2023-03-06T14:23:47.388Z,20.63
2023-03-06T14:26:53.830Z,23.73
2023-03-06T14:30:09.438Z,21.37
2023-03-06T14:33:12.721Z,15.03
2023-03-06T14:36:17.875Z,14.47
2023-03-06T14:39:24.327Z,17.60
2023-03-06T14:42:29.194Z,13.97
2023-03-06T14:45:35.492Z,12.60
2023-03-06T14:48:41.285Z,13.63
2023-03-06T14:51:46.718Z,13.73
2023-03-06T14:54:50.581Z,15.63
2023-03-06T14:57:58.176Z,31.87
2023-03-06T15:01:04.437Z,16.50
2023-03-06T15:04:17.212Z,14.60
2023-03-06T15:07:24.453Z,13.70
2023-03-06T15:10:30.228Z,16.93
2023-03-06T15:13:34.591Z,13.57
2023-03-06T15:16:38.777Z,15.10
2023-03-06T15:19:41.614Z,10.77
2023-03-06T15:22:44.732Z,12.60
2023-03-06T15:25:53.579Z,12.87
2023-03-06T15:29:08.182Z,9.17
2023-03-06T15:32:35.772Z,10.63
2023-03-06T15:35:39.237Z,13.47
2023-03-06T15:38:44.038Z,10.47
2023-03-06T15:41:46.626Z,8.60
2023-03-06T15:44:51.636Z,9.77
2023-03-06T15:47:58.800Z,9.70
2023-03-06T15:51:02.253Z,9.63
2023-03-06T15:54:12.391Z,10.00
2023-03-06T15:57:22.162Z,8.70
2023-03-06T16:00:28.612Z,9.03
2023-03-06T16:03:33.429Z,8.60
2023-03-06T16:06:36.051Z,9.63
2023-03-06T16:09:39.140Z,9.33
2023-03-06T16:12:44.616Z,9.43
2023-03-06T16:15:50.411Z,8.67
2023-03-06T16:18:54.424Z,8.50
2023-03-06T16:21:58.178Z,9.77
2023-03-06T16:25:00.778Z,15.87
2023-03-06T16:28:53.480Z,9.40
2023-03-06T16:31:57.499Z,8.30
2023-03-06T16:35:02.351Z,16.57
2023-03-06T16:38:05.066Z,23.17
2023-03-06T16:41:07.810Z,21.83
2023-03-06T16:44:11.149Z,22.20
2023-03-06T16:47:13.799Z,15.80
2023-03-06T16:50:24.408Z,16.93
2023-03-06T16:53:27.286Z,14.13
2023-03-06T16:56:29.981Z,13.73
2023-03-06T16:59:32.770Z,14.47
2023-03-06T17:02:35.448Z,16.33
2023-03-06T17:05:39.724Z,11.50
2023-03-06T17:08:42.457Z,13.33
2023-03-06T17:11:46.802Z,14.10
2023-03-06T17:14:49.544Z,14.07
2023-03-06T17:17:53.234Z,11.30
2023-03-06T17:20:58.299Z,14.93
2023-03-06T17:24:02.027Z,13.87
2023-03-06T17:27:04.737Z,12.07
2023-03-06T17:30:08.434Z,12.33
2023-03-06T17:33:11.142Z,15.20
2023-03-06T17:36:16.261Z,14.27
2023-03-06T17:39:19.778Z,12.67
2023-03-06T17:42:22.491Z,15.07
2023-03-06T17:45:25.402Z,16.60
2023-03-06T17:48:28.099Z,15.80
2023-03-06T17:51:32.095Z,18.73
2023-03-06T17:54:35.881Z,16.60
2023-03-06T17:57:38.605Z,22.27
2023-03-06T18:00:41.624Z,18.13
2023-03-06T18:03:45.993Z,17.70
2023-03-06T18:06:49.989Z,19.83
2023-03-06T18:09:52.687Z,21.63
2023-03-06T18:12:56.493Z,18.87
2023-03-06T18:15:59.883Z,16.90
2023-03-06T18:19:03.249Z,20.20
2023-03-06T18:22:07.293Z,18.33
2023-03-06T18:25:10.675Z,20.33
2023-03-06T18:28:13.537Z,19.13
2023-03-06T18:31:17.514Z,19.27
2023-03-06T18:34:20.248Z,17.17
2023-03-06T18:37:24.614Z,16.93
2023-03-06T18:40:27.369Z,17.17
2023-03-06T18:43:30.094Z,17.63
2023-03-06T18:46:34.604Z,16.63
2023-03-06T18:49:39.853Z,17.57
2023-03-06T18:52:44.350Z,18.33
2023-03-06T18:55:51.971Z,16.43
2023-03-06T18:58:54.695Z,16.67
2023-03-06T19:01:58.591Z,17.83
2023-03-06T19:05:02.436Z,18.03
2023-03-06T19:08:06.661Z,17.03
2023-03-06T19:11:11.348Z,17.80
2023-03-06T19:14:14.293Z,16.77
2023-03-06T19:17:16.928Z,16.70
2023-03-06T19:20:20.141Z,18.57
2023-03-06T19:23:24.325Z,25.97
2023-03-06T19:26:28.073Z,26.23
2023-03-06T19:29:32.482Z,19.97
2023-03-06T19:32:35.346Z,21.20
2023-03-06T19:35:38.136Z,20.43
2023-03-06T19:38:42.988Z,21.43
2023-03-06T19:41:47.184Z,20.07
2023-03-06T19:44:49.911Z,28.33
2023-03-06T19:47:55.484Z,25.10
2023-03-06T19:50:58.163Z,22.93
2023-03-06T19:54:02.223Z,24.27
2023-03-06T19:57:05.372Z,21.80
2023-03-06T20:00:09.523Z,21.60
2023-03-06T20:03:12.238Z,25.43
2023-03-06T20:06:17.560Z,21.63
2023-03-06T20:09:21.912Z,23.00
2023-03-06T20:12:24.632Z,21.70
2023-03-06T20:15:28.114Z,21.40
2023-03-06T20:18:30.883Z,23.43
2023-03-06T20:21:35.497Z,22.10
2023-03-06T20:24:39.609Z,21.57
2023-03-06T20:27:42.306Z,24.10
2023-03-06T20:30:45.333Z,22.67
2023-03-06T20:33:50.177Z,23.07
2023-03-06T20:36:53.072Z,20.40
2023-03-06T20:39:57.508Z,23.67
2023-03-06T20:43:00.201Z,21.63
2023-03-06T20:46:06.015Z,20.90
2023-03-06T20:49:09.264Z,23.50
2023-03-06T20:52:11.978Z,28.90
2023-03-06T20:55:16.306Z,24.90
2023-03-06T20:58:19.037Z,27.63
2023-03-06T21:01:23.663Z,23.13
2023-03-06T21:04:26.455Z,24.83
2023-03-06T21:07:29.201Z,21.87
2023-03-06T21:10:33.232Z,24.10
2023-03-06T21:13:36.263Z,19.80
2023-03-06T21:16:38.994Z,22.53
2023-03-06T21:19:42.486Z,26.60
2023-03-06T21:22:45.673Z,22.60
2023-03-06T21:25:51.289Z,21.60
2023-03-06T21:28:54.536Z,24.20
2023-03-06T21:31:57.265Z,20.73
2023-03-06T21:35:00.345Z,24.07
2023-03-06T21:38:03.826Z,20.13
2023-03-06T21:41:13.364Z,23.87
2023-03-06T21:44:16.068Z,23.90
2023-03-06T21:47:18.784Z,25.47
2023-03-06T21:50:22.092Z,25.23
2023-03-06T21:53:25.074Z,28.53
2023-03-06T21:56:29.858Z,21.87
2023-03-06T21:59:32.543Z,21.87
2023-03-06T22:02:35.265Z,22.13
2023-03-06T22:05:38.538Z,20.70
2023-03-06T22:08:41.743Z,30.23
2023-03-06T22:11:46.395Z,26.27
2023-03-06T22:14:49.555Z,28.23
2023-03-06T22:17:53.708Z,22.03
2023-03-06T22:20:56.540Z,27.67
2023-03-06T22:23:59.883Z,24.47
2023-03-06T22:27:04.192Z,25.47
2023-03-06T22:30:08.229Z,23.47
2023-03-06T22:33:10.961Z,22.60
2023-03-06T22:36:16.435Z,24.27
2023-03-06T22:39:19.579Z,20.77
2023-03-06T22:42:23.657Z,18.73
2023-03-06T22:45:26.348Z,19.63
2023-03-06T22:48:29.322Z,18.43
2023-03-06T22:51:32.032Z,22.10
2023-03-06T22:54:34.825Z,23.13
2023-03-06T22:57:38.864Z,21.47
2023-03-06T23:00:41.640Z,21.60
2023-03-06T23:03:46.028Z,20.87
2023-03-06T23:06:48.714Z,20.47
2023-03-06T23:09:52.027Z,20.00
2023-03-06T23:12:56.367Z,23.40
2023-03-06T23:16:02.833Z,22.57
2023-03-06T23:19:05.975Z,20.37
2023-03-06T23:22:10.072Z,21.50
2023-03-06T23:25:12.867Z,21.83
2023-03-06T23:28:17.426Z,21.30
2023-03-06T23:31:22.584Z,24.33
2023-03-06T23:34:27.213Z,22.30
2023-03-06T23:37:29.909Z,24.63
2023-03-06T23:40:35.626Z,33.97
2023-03-06T23:43:39.994Z,24.63
2023-03-06T23:46:42.690Z,26.70
2023-03-06T23:49:45.403Z,27.37
2023-03-06T23:52:48.061Z,24.33
2023-03-06T23:55:51.472Z,22.97
2023-03-06T23:58:55.612Z,23.17
